Latest Coastal Weather Observations for Wynyard

IDV60701

Issued at 3:21 pm EDT Saturday 20 December 2014 (issued every 10 minutes, with the page automatically refreshed every 10 minutes)

About coastal observations | Map of coastal stations | Coastal observations for VIC | Marine services | Other Formats
Station Details ID: 091107 Name: WYNYARD AIRPORT Lat: -41.00 Lon: 145.73 Height: 12.0 m
Data from the previous 72 hours. | See also: Recent months at Wynyard
Date/Time
EDT
Temp

°C
Wind Pressure Rain
since 9am
mm
Weather Cloud Vis
km
Sea
Height
m
Swell
Dir
 
Speed
knots
Gust
knots
hPa Trend Height
m
Period
s
Dir
20/03:00pm 21.7 W 17 25 1014.0 - 0.0 - Mostly clear 10 - - - -
20/02:52pm 21.9 WSW 16 26 1014.1 - 0.0 - Partly cloudy 10 - - - -
20/02:41pm 21.4 WSW 16 27 1014.1 - 0.0 - Partly cloudy 10 - - - -
20/02:30pm 21.7 W 16 23 1014.0 - 0.0 - Partly cloudy 10 - - - -
20/02:00pm 20.4 WSW 15 22 1014.1 - 0.0 - Partly cloudy 10 - - - -
20/01:30pm 21.5 WSW 18 24 1014.1 - 0.0 - Partly cloudy 10 - - - -
20/01:02pm 20.2 WSW 17 27 1014.2 - 0.0 - Partly cloudy 10 - - - -
20/01:00pm 20.5 WSW 16 25 1014.3 - 0.0 - Partly cloudy 10 - - - -
20/12:30pm 20.4 SW 16 22 1014.6 - 0.0 - Partly cloudy 10 - - - -
20/12:00pm 19.2 WSW 18 23 1014.6 - 0.0 - Cloudy 10 - - - -
20/11:32am 20.1 WSW 15 25 1014.5 - 0.0 - Partly cloudy 10 - - - -
20/11:30am 19.9 WSW 15 20 1014.7 - 0.0 - Partly cloudy 10 - - - -
20/11:00am 20.1 WSW 15 23 1014.5 - 0.0 - Partly cloudy 10 - - - -
20/10:49am 18.6 WSW 18 28 1014.5 - 0.0 - Partly cloudy 10 - - - -
20/10:30am 18.8 W 15 20 1014.3 - 0.0 - Partly cloudy 10 - - - -
20/10:00am 19.1 WSW 16 22 1014.4 - 0.0 - Partly cloudy 10 - - - -
20/09:50am 18.3 WSW 12 19 1014.5 - 0.0 - Partly cloudy 10 - - - -
20/09:30am 17.3 W 12 17 1014.4 - 0.0 - Partly cloudy 10 - - - -
20/09:00am 16.6 W 14 20 1014.3 - 0.0 - Cloudy 10 - - - -
20/08:30am 16.0 WNW 13 17 1014.2 - 0.0 - Partly cloudy 10 - - - -
20/08:06am 15.9 W 13 19 1014.1 - 0.0 - Partly cloudy 10 - - - -
20/08:00am 15.4 W 14 20 1014.0 - 0.0 - Partly cloudy 10 - - - -
20/07:30am 14.4 WNW 11 15 1013.8 - 0.0 - Partly cloudy 10 - - - -
20/07:00am 13.9 WNW 10 15 1013.8 - 0.0 - Partly cloudy 10 - - - -
20/06:30am 13.2 W 9 12 1013.5 - 0.0 - Partly cloudy 10 - - - -
20/06:00am 13.0 WNW 9 12 1013.3 - 0.0 - Cloudy 10 - - - -
20/05:58am 12.9 WNW 9 12 1013.4 - 0.0 - Partly cloudy 10 - - - -
20/05:34am 13.5 WNW 9 12 1013.4 - 0.0 - Partly cloudy 10 - - - -
20/05:30am 13.5 WNW 9 12 1013.5 - 0.0 - Partly cloudy 10 - - - -
20/05:00am 12.0 W 1 5 1013.3 - 0.0 - Partly cloudy 10 - - - -
20/04:30am 11.9 S 2 5 1013.4 - 0.0 - Partly cloudy 10 - - - -
20/04:00am 12.7 W 7 9 1013.3 - 0.0 - Partly cloudy 10 - - - -
20/03:30am 12.8 WNW 8 10 1013.6 - 0.0 - Partly cloudy 10 - - - -
20/03:00am 12.7 NW 8 9 1014.0 - 0.0 - Cloudy 10 - - - -
20/02:30am 12.7 WNW 6 8 1014.3 - 0.0 - Partly cloudy 10 - - - -
20/02:00am 11.7 SW 3 4 1014.8 - 0.0 - Partly cloudy 10 - - - -
20/01:30am 11.7 SW 3 4 1015.2 - 0.0 - Partly cloudy 10 - - - -
20/01:00am 11.6 WSW 3 4 1015.6 - 0.0 - Partly cloudy 10 - - - -
20/12:30am 11.2 WSW 4 5 1015.7 - 0.0 - Partly cloudy 10 - - - -
 
Date/Time
EDT
Temp

°C
Wind Pressure Rain
since 9am
mm
Weather Cloud Vis
km
Sea
Height
m
Swell
Dir
 
Speed
knots
Gust
knots
hPa Trend Height
m
Period
s
Dir
19/11:30pm 12.6 WNW 7 8 1016.2 - 0.0 - Partly cloudy 10 - - - -
19/11:00pm 12.0 W 6 8 1016.6 - 0.0 - Partly cloudy 10 - - - -
19/10:30pm 12.5 WNW 5 7 1016.8 - 0.0 - Partly cloudy 10 - - - -
19/10:00pm 12.6 W 6 7 1016.8 - 0.0 - Partly cloudy 10 - - - -
19/09:30pm 12.9 W 9 11 1016.7 - 0.0 - Cloudy 10 - - - -
19/09:00pm 13.0 WSW 10 14 1016.5 - 0.0 - Cloudy 10 - - - -
19/08:30pm 13.8 W 12 17 1016.2 - 0.0 - Partly cloudy 10 - - - -
19/08:00pm 14.4 W 13 16 1016.2 - 0.0 - Partly cloudy 10 - - - -
19/07:30pm 15.1 WSW 14 17 1015.5 - 0.0 - Partly cloudy 10 - - - -
19/07:00pm 15.6 WSW 9 13 1015.3 - 0.0 - Partly cloudy 10 - - - -
19/06:30pm 16.0 SW 12 17 1014.9 - 0.0 - Partly cloudy 10 - - - -
19/06:00pm 16.3 SW 12 19 1014.8 - 0.0 - Partly cloudy 10 - - - -
19/05:30pm 16.2 WSW 15 20 1014.7 - 0.0 - Partly cloudy 10 - - - -
19/05:00pm 16.7 WSW 17 23 1014.4 - 0.0 - Partly cloudy 10 - - - -
19/04:30pm 16.8 W 17 21 1014.3 - 0.0 - Partly cloudy 10 - - - -
19/04:00pm 18.4 WSW 17 22 1014.2 - 0.0 - Partly cloudy 10 - - - -
19/03:30pm 19.4 WSW 18 24 1014.0 - 0.0 - Cloudy 10 - - - -
19/03:00pm 19.4 WSW 15 24 1013.9 - 0.0 - Partly cloudy 10 - - - -
19/02:30pm 19.3 WSW 16 23 1013.7 - 0.0 - Partly cloudy 10 - - - -
19/02:00pm 18.9 WSW 13 21 1013.7 - 0.0 - Partly cloudy 10 - - - -
19/01:30pm 17.5 WSW 14 22 1013.7 - 0.0 - Partly cloudy 10 - - - -
19/01:00pm 17.6 SW 14 20 1013.8 - 0.0 - Partly cloudy 10 - - - -
19/12:30pm 18.2 SW 12 18 1013.7 - 0.0 - Partly cloudy 10 - - - -
19/12:00pm 17.5 SW 13 18 1013.8 - 0.0 - Partly cloudy 10 - - - -
19/11:30am 15.7 WSW 9 13 1014.0 - 0.0 - Partly cloudy 10 - - - -
19/11:00am 15.9 SW 10 16 1014.0 - 0.0 - Partly cloudy 10 - - - -
19/10:30am 16.3 WSW 9 15 1014.1 - 0.0 - Partly cloudy 10 - - - -
19/10:00am 14.6 SW 11 17 1014.3 - 0.0 - Partly cloudy 10 - - - -
19/09:30am 14.4 SW 13 20 1013.9 - 0.0 - Partly cloudy 10 - - - -
19/09:00am 14.4 WSW 12 20 1013.7 - 4.2 - - 10 - - - -
19/08:30am 13.3 SW 13 20 1013.4 - 4.2 - - 10 - - - -
19/08:00am 12.6 SW 11 15 1013.2 - 4.2 - - 10 - - - -
19/07:30am 11.6 SW 13 18 1012.7 - 4.2 - - 10 - - - -
19/07:00am 10.8 SW 9 13 1012.3 - 4.2 - - 10 - - - -
19/06:30am 9.3 WSW 9 11 1012.1 - 4.2 - - 10 - - - -
19/06:00am 8.6 WSW 9 11 1011.7 - 4.2 - - 10 - - - -
19/05:30am 8.6 WSW 9 12 1011.1 - 4.2 - - 10 - - - -
19/05:00am 7.2 W 9 11 1010.6 - 4.2 - - 10 - - - -
19/04:30am 7.0 W 8 9 1010.3 - 4.2 - - 10 - - - -
19/04:00am 7.0 WSW 8 9 1010.3 - 4.2 - - 10 - - - -
19/03:30am 6.5 W 8 9 1010.3 - 4.2 - - 10 - - - -
19/03:00am 6.9 WSW 7 8 1010.1 - 4.2 - - 10 - - - -
19/02:30am 7.7 W 8 10 1009.9 - 4.2 - - 10 - - - -
19/02:00am 7.1 WSW 6 7 1010.0 - 4.2 - Partly cloudy 10 - - - -
19/01:30am 7.2 WSW 7 9 1009.9 - 4.2 - - 10 - - - -
19/01:00am 8.4 W 9 11 1009.6 - 4.2 - - 10 - - - -
19/12:30am 8.8 W 9 10 1009.5 - 4.2 - - 10 - - - -
19/12:00am 8.7 WSW 8 9 1009.2 - 4.2 - - 10 - - - -
 
Date/Time
EDT
Temp

°C
Wind Pressure Rain
since 9am
mm
Weather Cloud Vis
km
Sea
Height
m
Swell
Dir
 
Speed
knots
Gust
knots
hPa Trend Height
m
Period
s
Dir
18/11:30pm 9.2 WSW 8 11 1009.1 - 4.2 - - 10 - - - -
18/11:00pm 9.5 WSW 7 9 1008.8 - 4.2 - - 10 - - - -
18/10:30pm 9.7 WSW 8 9 1008.7 - 4.2 - - 10 - - - -
18/10:00pm 10.6 WSW 8 10 1008.4 - 4.2 - - 10 - - - -
18/09:30pm 11.1 WSW 8 9 1008.0 - 4.2 - - 10 - - - -
18/09:00pm 11.9 WSW 9 12 1007.5 - 4.2 Recent precip. - 10 - - - -
18/08:30pm 13.3 WSW 11 15 1007.0 - 4.2 - - 10 - - - -
18/08:00pm 14.5 WSW 12 16 1006.5 - 4.0 - - 10 - - - -
18/07:30pm 15.6 WSW 13 19 1006.0 - 4.0 - - 10 - - - -
18/07:00pm 15.7 WSW 14 18 1005.3 - 4.0 - Partly cloudy 10 - - - -
18/06:30pm 16.7 WSW 14 22 1004.7 - 4.0 - Partly cloudy 10 - - - -
18/06:20pm 16.4 WSW 15 24 1004.5 - 4.0 - Partly cloudy 10 - - - -
18/06:00pm 16.7 W 10 13 1004.3 - 4.0 - Mostly cloudy 10 - - - -
18/05:30pm 15.4 W 11 15 1004.1 - 4.0 - Partly cloudy 10 - - - -
18/05:00pm 16.5 W 13 18 1004.0 - 4.0 - Partly cloudy 10 - - - -
18/04:30pm 14.7 WSW 11 15 1004.0 - 4.0 - Partly cloudy 10 - - - -
18/04:00pm 13.6 W 8 11 1003.9 - 4.0 - Partly cloudy 10 - - - -
18/03:30pm 12.7 WSW 6 9 1003.9 - 4.0 - Cloudy 10 - - - -
18/03:00pm 12.7 W 7 10 1004.0 - 3.6 Rain Cloudy 10 - - - -
18/02:30pm 12.7 W 11 14 1003.8 - 2.6 - Partly cloudy 10 - - - -
18/02:21pm 12.9 WNW 10 12 1003.7 - 2.2 - Partly cloudy 10 - - - -
18/02:00pm 13.1 NW 19 34 1003.8 - 1.2 - Partly cloudy 4 - - - -
18/01:55pm 15.9 NW 15 26 1003.2 - 0.0 - Partly cloudy 10 - - - -
18/01:30pm 16.5 NNW 13 19 1003.2 - 0.0 - Cloudy 10 - - - -
18/01:00pm 16.6 NNW 12 20 1003.5 - 0.0 - Cloudy 10 - - - -
18/12:30pm 16.6 NNW 12 18 1003.7 - 0.0 - Partly cloudy 10 - - - -
18/12:00pm 17.0 NNW 10 15 1003.6 - 0.0 - Cloudy 10 - - - -
18/11:30am 16.7 NNW 12 16 1003.8 - 0.0 - Cloudy 10 - - - -
18/11:00am 16.6 NNW 9 13 1004.0 - 0.0 - Cloudy 10 - - - -
18/10:30am 17.1 NNW 13 19 1004.1 - 0.0 - Partly cloudy 10 - - - -
18/10:00am 15.9 N 9 15 1004.4 - 0.0 - Partly cloudy 10 - - - -
18/09:30am 16.0 N 8 12 1004.6 - 0.0 - Partly cloudy 10 - - - -
18/09:00am 15.6 NNW 9 14 1004.8 - 0.0 - Cloudy 10 - - - -
18/08:30am 15.7 N 9 13 1004.9 - 0.0 - Partly cloudy 10 - - - -
18/08:00am 15.5 N 10 14 1004.8 - 0.0 - Partly cloudy 10 - - - -
18/07:30am 13.0 WSW 4 6 1004.8 - 0.0 - Partly cloudy 10 - - - -
18/07:00am 11.2 CALM 0 0 1004.9 - 0.0 - Partly cloudy 10 - - - -
18/06:30am 9.8 SW 2 6 1005.0 - 0.0 - Partly cloudy 10 - - - -
18/06:00am 9.4 WSW 3 5 1004.9 - 0.0 - Mostly cloudy 10 - - - -
18/05:30am 8.9 WSW 4 5 1005.1 - 0.0 - Partly cloudy 10 - - - -
18/05:00am 8.8 WSW 4 5 1005.2 - 0.0 - Partly cloudy 10 - - - -
18/04:30am 8.4 WSW 4 5 1005.2 - 0.0 - Partly cloudy 10 - - - -
18/04:00am 8.1 W 3 4 1005.3 - 0.0 - Partly cloudy 10 - - - -
18/03:30am 7.9 WSW 5 7 1005.6 - 0.0 - Partly cloudy 10 - - - -
18/03:00am 7.4 W 6 8 1005.9 - 0.0 - Cloudy 10 - - - -
18/02:30am 6.7 W 6 7 1005.9 - 0.0 - Partly cloudy 10 - - - -
18/02:00am 6.8 W 7 7 1005.9 - 0.0 - - 10 - - - -
18/01:30am 6.5 W 5 6 1006.0 - 0.0 - Partly cloudy 10 - - - -
18/01:00am 6.3 WSW 5 6 1006.3 - 0.0 - - 10 - - - -
18/12:30am 7.2 SW 4 5 1006.3 - 0.0 - - 10 - - - -
18/12:00am 7.1 SW 4 5 1006.7 - 0.0 - Mostly clear 10 - - - -
 
Date/Time
EDT
Temp

°C
Wind Pressure Rain
since 9am
mm
Weather Cloud Vis
km
Sea
Height
m
Swell
Dir
 
Speed
knots
Gust
knots
hPa Trend Height
m
Period
s
Dir
17/11:30pm 7.7 WNW 5 6 1007.1 - 0.0 - - 10 - - - -
17/11:00pm 8.5 WSW 3 4 1007.2 - 0.0 - - 10 - - - -
17/10:30pm 8.7 SW 4 4 1007.5 - 0.0 - - 10 - - - -
17/10:00pm 9.2 WSW 5 5 1007.6 - 0.0 - - 10 - - - -
17/09:30pm 12.0 NW 5 6 1007.5 - 0.0 - - 10 - - - -
17/09:00pm 12.3 WNW 7 9 1007.4 - 0.0 - Mostly clear 10 - - - -
17/08:30pm 13.6 W 7 9 1007.2 - 0.0 - - 10 - - - -
17/08:00pm 14.3 W 10 13 1007.1 - 0.0 - - 10 - - - -
17/07:30pm 15.9 W 10 13 1006.7 - 0.0 - - 10 - - - -
17/07:00pm 16.0 WNW 12 17 1006.6 - 0.0 - Partly cloudy 10 - - - -
17/06:30pm 16.9 W 12 17 1006.2 - 0.0 - Partly cloudy 10 - - - -
17/06:00pm 17.5 WNW 13 21 1006.1 - 0.0 - Cloudy 10 - - - -
17/05:30pm 16.2 WSW 12 15 1006.2 - 0.0 - Partly cloudy 10 - - - -
17/05:00pm 16.7 WSW 14 22 1006.2 - 0.0 - Partly cloudy 10 - - - -
17/04:30pm 17.5 W 16 21 1006.0 - 0.0 - Partly cloudy 10 - - - -
17/04:00pm 17.7 WSW 13 20 1005.8 - 0.0 - Partly cloudy 10 - - - -
17/03:30pm 17.0 W 14 21 1005.9 - 0.0 - Partly cloudy 10 - - - -

Other Formats:

Comma delimited format used in spreadsheet applications
http://www.bom.gov.au/fwo/IDV60701/IDV60701.95957.axf

JavaScript Object Notation format (JSON) in row-major order
http://www.bom.gov.au/fwo/IDV60701/IDV60701.95957.json